sensor_id;sensor_type;location;lat;lon;timestamp;P1;durP1;ratioP1;P2;durP2;ratioP2
14048;SDS011;7099;53.922;10.728;2023-02-15T00:02:23;32.87;;;16.93;;
14048;SDS011;7099;53.922;10.728;2023-02-15T00:06:29;28.53;;;14.93;;
14048;SDS011;7099;53.922;10.728;2023-02-15T00:10:34;28.37;;;14.17;;
14048;SDS011;7099;53.922;10.728;2023-02-15T00:14:40;27.83;;;13.70;;
14048;SDS011;7099;53.922;10.728;2023-02-15T00:18:46;28.30;;;13.17;;
14048;SDS011;7099;53.922;10.728;2023-02-15T00:22:52;26.47;;;13.97;;
14048;SDS011;7099;53.922;10.728;2023-02-15T00:26:57;27.20;;;13.17;;
14048;SDS011;7099;53.922;10.728;2023-02-15T00:31:04;25.10;;;12.90;;
14048;SDS011;7099;53.922;10.728;2023-02-15T00:35:15;22.93;;;13.30;;
14048;SDS011;7099;53.922;10.728;2023-02-15T00:39:21;22.80;;;13.47;;
14048;SDS011;7099;53.922;10.728;2023-02-15T00:43:29;25.43;;;13.23;;
14048;SDS011;7099;53.922;10.728;2023-02-15T00:47:35;25.53;;;12.83;;
14048;SDS011;7099;53.922;10.728;2023-02-15T00:51:41;21.40;;;12.20;;
14048;SDS011;7099;53.922;10.728;2023-02-15T00:55:46;25.23;;;13.53;;
14048;SDS011;7099;53.922;10.728;2023-02-15T00:59:52;26.80;;;14.07;;
14048;SDS011;7099;53.922;10.728;2023-02-15T01:03:58;23.30;;;13.30;;
14048;SDS011;7099;53.922;10.728;2023-02-15T01:08:03;23.53;;;12.87;;
14048;SDS011;7099;53.922;10.728;2023-02-15T01:12:09;24.03;;;12.13;;
14048;SDS011;7099;53.922;10.728;2023-02-15T01:16:14;26.17;;;13.43;;
14048;SDS011;7099;53.922;10.728;2023-02-15T01:20:21;28.93;;;12.87;;
14048;SDS011;7099;53.922;10.728;2023-02-15T01:24:31;26.20;;;12.70;;
14048;SDS011;7099;53.922;10.728;2023-02-15T01:28:36;25.00;;;13.07;;
14048;SDS011;7099;53.922;10.728;2023-02-15T01:32:43;24.97;;;13.20;;
14048;SDS011;7099;53.922;10.728;2023-02-15T01:36:49;26.90;;;12.70;;
14048;SDS011;7099;53.922;10.728;2023-02-15T01:40:54;25.57;;;13.17;;
14048;SDS011;7099;53.922;10.728;2023-02-15T01:45:26;28.23;;;13.60;;
14048;SDS011;7099;53.922;10.728;2023-02-15T01:49:35;22.40;;;12.90;;
14048;SDS011;7099;53.922;10.728;2023-02-15T01:53:43;25.17;;;13.40;;
14048;SDS011;7099;53.922;10.728;2023-02-15T01:58:00;23.50;;;12.53;;
14048;SDS011;7099;53.922;10.728;2023-02-15T02:02:07;26.97;;;14.40;;
14048;SDS011;7099;53.922;10.728;2023-02-15T02:06:18;25.90;;;13.07;;
14048;SDS011;7099;53.922;10.728;2023-02-15T02:10:25;26.30;;;14.00;;
14048;SDS011;7099;53.922;10.728;2023-02-15T02:14:30;24.33;;;11.90;;
14048;SDS011;7099;53.922;10.728;2023-02-15T02:46:26;23.40;;;12.27;;
14048;SDS011;7099;53.922;10.728;2023-02-15T02:50:39;24.23;;;11.93;;
14048;SDS011;7099;53.922;10.728;2023-02-15T02:54:46;26.83;;;12.20;;
14048;SDS011;7099;53.922;10.728;2023-02-15T02:58:54;23.60;;;12.60;;
14048;SDS011;7099;53.922;10.728;2023-02-15T03:03:31;20.20;;;11.90;;
14048;SDS011;7099;53.922;10.728;2023-02-15T03:07:43;22.13;;;11.50;;
14048;SDS011;7099;53.922;10.728;2023-02-15T03:11:55;21.67;;;12.50;;
14048;SDS011;7099;53.922;10.728;2023-02-15T03:16:00;21.23;;;12.17;;
14048;SDS011;7099;53.922;10.728;2023-02-15T03:20:33;22.83;;;11.70;;
14048;SDS011;7099;53.922;10.728;2023-02-15T03:29:09;24.97;;;12.67;;
14048;SDS011;7099;53.922;10.728;2023-02-15T03:33:16;26.07;;;12.90;;
14048;SDS011;7099;53.922;10.728;2023-02-15T03:42:26;22.27;;;12.53;;
14048;SDS011;7099;53.922;10.728;2023-02-15T03:46:21;22.90;;;12.90;;
14048;SDS011;7099;53.922;10.728;2023-02-15T03:50:36;24.33;;;12.40;;
14048;SDS011;7099;53.922;10.728;2023-02-15T03:55:02;23.17;;;12.13;;
14048;SDS011;7099;53.922;10.728;2023-02-15T03:59:08;23.53;;;12.50;;
14048;SDS011;7099;53.922;10.728;2023-02-15T04:03:36;25.70;;;11.40;;
14048;SDS011;7099;53.922;10.728;2023-02-15T04:07:48;24.20;;;12.60;;
14048;SDS011;7099;53.922;10.728;2023-02-15T04:11:53;22.47;;;12.27;;
14048;SDS011;7099;53.922;10.728;2023-02-15T04:15:59;28.80;;;13.40;;
14048;SDS011;7099;53.922;10.728;2023-02-15T04:20:11;27.23;;;12.80;;
14048;SDS011;7099;53.922;10.728;2023-02-15T04:24:35;22.20;;;12.40;;
14048;SDS011;7099;53.922;10.728;2023-02-15T04:28:59;27.63;;;12.07;;
14048;SDS011;7099;53.922;10.728;2023-02-15T04:33:05;24.33;;;12.40;;
14048;SDS011;7099;53.922;10.728;2023-02-15T04:37:10;22.13;;;11.73;;
14048;SDS011;7099;53.922;10.728;2023-02-15T04:41:16;27.73;;;12.93;;
14048;SDS011;7099;53.922;10.728;2023-02-15T04:45:21;26.23;;;13.07;;
14048;SDS011;7099;53.922;10.728;2023-02-15T04:49:27;23.60;;;12.50;;
14048;SDS011;7099;53.922;10.728;2023-02-15T04:53:32;26.23;;;13.97;;
14048;SDS011;7099;53.922;10.728;2023-02-15T04:57:38;24.73;;;13.47;;
14048;SDS011;7099;53.922;10.728;2023-02-15T05:01:44;28.70;;;14.00;;
14048;SDS011;7099;53.922;10.728;2023-02-15T05:05:51;30.03;;;14.70;;
14048;SDS011;7099;53.922;10.728;2023-02-15T05:09:56;29.17;;;13.47;;
14048;SDS011;7099;53.922;10.728;2023-02-15T05:14:02;39.43;;;17.77;;
14048;SDS011;7099;53.922;10.728;2023-02-15T05:18:08;46.87;;;16.33;;
14048;SDS011;7099;53.922;10.728;2023-02-15T05:22:13;45.53;;;17.37;;
14048;SDS011;7099;53.922;10.728;2023-02-15T05:26:20;75.53;;;17.50;;
14048;SDS011;7099;53.922;10.728;2023-02-15T05:31:07;49.87;;;16.97;;
14048;SDS011;7099;53.922;10.728;2023-02-15T05:35:27;73.80;;;18.13;;
14048;SDS011;7099;53.922;10.728;2023-02-15T05:39:32;40.53;;;16.93;;
14048;SDS011;7099;53.922;10.728;2023-02-15T05:43:38;44.10;;;19.40;;
14048;SDS011;7099;53.922;10.728;2023-02-15T05:47:44;91.43;;;18.20;;
14048;SDS011;7099;53.922;10.728;2023-02-15T05:51:51;36.50;;;16.53;;
14048;SDS011;7099;53.922;10.728;2023-02-15T05:55:56;69.90;;;17.23;;
14048;SDS011;7099;53.922;10.728;2023-02-15T06:00:06;79.60;;;19.03;;
14048;SDS011;7099;53.922;10.728;2023-02-15T06:04:13;57.93;;;17.30;;
14048;SDS011;7099;53.922;10.728;2023-02-15T06:08:18;108.57;;;24.00;;
14048;SDS011;7099;53.922;10.728;2023-02-15T06:12:24;44.07;;;19.20;;
14048;SDS011;7099;53.922;10.728;2023-02-15T06:16:29;60.13;;;17.60;;
14048;SDS011;7099;53.922;10.728;2023-02-15T06:20:35;79.40;;;19.47;;
14048;SDS011;7099;53.922;10.728;2023-02-15T06:24:42;72.33;;;18.27;;
14048;SDS011;7099;53.922;10.728;2023-02-15T06:28:48;163.90;;;19.43;;
14048;SDS011;7099;53.922;10.728;2023-02-15T06:32:53;138.97;;;20.30;;
14048;SDS011;7099;53.922;10.728;2023-02-15T06:36:59;66.43;;;17.00;;
14048;SDS011;7099;53.922;10.728;2023-02-15T06:41:04;109.80;;;19.50;;
14048;SDS011;7099;53.922;10.728;2023-02-15T06:45:10;150.97;;;20.00;;
14048;SDS011;7099;53.922;10.728;2023-02-15T06:49:16;43.60;;;17.70;;
14048;SDS011;7099;53.922;10.728;2023-02-15T06:53:22;113.53;;;20.07;;
14048;SDS011;7099;53.922;10.728;2023-02-15T06:57:27;129.60;;;18.63;;
14048;SDS011;7099;53.922;10.728;2023-02-15T07:01:33;98.60;;;18.50;;
14048;SDS011;7099;53.922;10.728;2023-02-15T07:05:39;73.77;;;18.23;;
14048;SDS011;7099;53.922;10.728;2023-02-15T07:09:44;75.67;;;16.60;;
14048;SDS011;7099;53.922;10.728;2023-02-15T07:13:50;56.03;;;16.63;;
14048;SDS011;7099;53.922;10.728;2023-02-15T07:17:57;102.03;;;18.23;;
14048;SDS011;7099;53.922;10.728;2023-02-15T07:22:03;84.30;;;19.17;;
14048;SDS011;7099;53.922;10.728;2023-02-15T07:26:09;149.53;;;18.80;;
14048;SDS011;7099;53.922;10.728;2023-02-15T07:30:15;46.73;;;18.43;;
14048;SDS011;7099;53.922;10.728;2023-02-15T07:34:22;75.53;;;16.97;;
14048;SDS011;7099;53.922;10.728;2023-02-15T07:38:31;91.87;;;18.63;;
14048;SDS011;7099;53.922;10.728;2023-02-15T07:42:40;103.00;;;17.60;;
14048;SDS011;7099;53.922;10.728;2023-02-15T07:46:45;127.23;;;18.53;;
14048;SDS011;7099;53.922;10.728;2023-02-15T07:50:51;41.53;;;17.70;;
14048;SDS011;7099;53.922;10.728;2023-02-15T07:54:57;99.70;;;17.70;;
14048;SDS011;7099;53.922;10.728;2023-02-15T07:59:02;90.30;;;16.90;;
14048;SDS011;7099;53.922;10.728;2023-02-15T08:03:09;63.80;;;18.73;;
14048;SDS011;7099;53.922;10.728;2023-02-15T08:07:18;44.33;;;17.00;;
14048;SDS011;7099;53.922;10.728;2023-02-15T08:11:24;65.13;;;16.07;;
14048;SDS011;7099;53.922;10.728;2023-02-15T08:15:47;35.50;;;16.20;;
14048;SDS011;7099;53.922;10.728;2023-02-15T08:19:55;81.50;;;17.73;;
14048;SDS011;7099;53.922;10.728;2023-02-15T08:24:01;72.43;;;17.80;;
14048;SDS011;7099;53.922;10.728;2023-02-15T08:28:07;95.50;;;16.80;;
14048;SDS011;7099;53.922;10.728;2023-02-15T08:32:13;66.60;;;16.33;;
14048;SDS011;7099;53.922;10.728;2023-02-15T08:36:20;57.43;;;17.57;;
14048;SDS011;7099;53.922;10.728;2023-02-15T08:40:28;59.60;;;15.73;;
14048;SDS011;7099;53.922;10.728;2023-02-15T08:44:33;64.57;;;17.10;;
14048;SDS011;7099;53.922;10.728;2023-02-15T08:48:39;97.80;;;17.10;;
14048;SDS011;7099;53.922;10.728;2023-02-15T08:52:45;80.40;;;16.80;;
14048;SDS011;7099;53.922;10.728;2023-02-15T08:56:51;44.57;;;15.40;;
14048;SDS011;7099;53.922;10.728;2023-02-15T09:00:57;117.27;;;16.60;;
14048;SDS011;7099;53.922;10.728;2023-02-15T09:05:04;82.10;;;14.53;;
14048;SDS011;7099;53.922;10.728;2023-02-15T09:09:10;127.40;;;15.80;;
14048;SDS011;7099;53.922;10.728;2023-02-15T09:13:16;126.83;;;14.50;;
14048;SDS011;7099;53.922;10.728;2023-02-15T09:17:22;30.67;;;15.27;;
14048;SDS011;7099;53.922;10.728;2023-02-15T09:21:28;61.70;;;15.13;;
14048;SDS011;7099;53.922;10.728;2023-02-15T09:25:34;41.67;;;14.60;;
14048;SDS011;7099;53.922;10.728;2023-02-15T09:29:39;32.83;;;15.33;;
14048;SDS011;7099;53.922;10.728;2023-02-15T09:33:46;79.47;;;15.40;;
14048;SDS011;7099;53.922;10.728;2023-02-15T09:37:52;57.87;;;14.90;;
14048;SDS011;7099;53.922;10.728;2023-02-15T09:46:22;47.83;;;14.90;;
14048;SDS011;7099;53.922;10.728;2023-02-15T10:33:00;36.63;;;16.23;;
14048;SDS011;7099;53.922;10.728;2023-02-15T10:37:22;35.20;;;16.23;;
14048;SDS011;7099;53.922;10.728;2023-02-15T10:42:04;29.53;;;16.67;;
14048;SDS011;7099;53.922;10.728;2023-02-15T10:46:25;27.87;;;15.37;;
14048;SDS011;7099;53.922;10.728;2023-02-15T10:50:59;27.27;;;15.37;;
14048;SDS011;7099;53.922;10.728;2023-02-15T10:59:50;30.63;;;16.00;;
14048;SDS011;7099;53.922;10.728;2023-02-15T11:04:33;31.33;;;15.23;;
14048;SDS011;7099;53.922;10.728;2023-02-15T11:08:50;31.97;;;17.57;;
14048;SDS011;7099;53.922;10.728;2023-02-15T11:13:03;39.90;;;17.60;;
14048;SDS011;7099;53.922;10.728;2023-02-15T11:17:35;33.47;;;17.10;;
14048;SDS011;7099;53.922;10.728;2023-02-15T11:21:57;34.93;;;17.60;;
14048;SDS011;7099;53.922;10.728;2023-02-15T11:26:10;30.57;;;17.00;;
14048;SDS011;7099;53.922;10.728;2023-02-15T11:30:24;31.53;;;17.20;;
14048;SDS011;7099;53.922;10.728;2023-02-15T11:34:56;40.43;;;17.03;;
14048;SDS011;7099;53.922;10.728;2023-02-15T11:39:10;33.93;;;16.90;;
14048;SDS011;7099;53.922;10.728;2023-02-15T11:47:46;34.27;;;17.87;;
14048;SDS011;7099;53.922;10.728;2023-02-15T11:51:51;35.80;;;17.73;;
14048;SDS011;7099;53.922;10.728;2023-02-15T11:55:59;30.70;;;16.47;;
14048;SDS011;7099;53.922;10.728;2023-02-15T12:04:43;28.60;;;16.67;;
14048;SDS011;7099;53.922;10.728;2023-02-15T12:09:05;26.97;;;17.17;;
14048;SDS011;7099;53.922;10.728;2023-02-15T12:13:26;29.77;;;16.30;;
14048;SDS011;7099;53.922;10.728;2023-02-15T12:17:33;32.37;;;17.63;;
14048;SDS011;7099;53.922;10.728;2023-02-15T12:21:48;29.20;;;16.30;;
14048;SDS011;7099;53.922;10.728;2023-02-15T12:25:57;28.17;;;16.50;;
14048;SDS011;7099;53.922;10.728;2023-02-15T12:30:04;28.13;;;15.87;;
14048;SDS011;7099;53.922;10.728;2023-02-15T12:34:32;28.60;;;17.20;;
14048;SDS011;7099;53.922;10.728;2023-02-15T12:39:02;28.07;;;16.50;;
14048;SDS011;7099;53.922;10.728;2023-02-15T12:43:37;29.20;;;17.10;;
14048;SDS011;7099;53.922;10.728;2023-02-15T12:47:43;34.30;;;17.30;;
14048;SDS011;7099;53.922;10.728;2023-02-15T12:51:51;32.20;;;17.80;;
14048;SDS011;7099;53.922;10.728;2023-02-15T12:56:00;31.80;;;17.50;;
14048;SDS011;7099;53.922;10.728;2023-02-15T13:04:24;31.63;;;18.60;;
14048;SDS011;7099;53.922;10.728;2023-02-15T13:08:35;29.17;;;17.03;;
14048;SDS011;7099;53.922;10.728;2023-02-15T13:12:51;29.97;;;17.80;;
14048;SDS011;7099;53.922;10.728;2023-02-15T13:17:00;26.63;;;17.10;;
14048;SDS011;7099;53.922;10.728;2023-02-15T13:25:19;32.83;;;18.33;;
14048;SDS011;7099;53.922;10.728;2023-02-15T13:29:33;31.00;;;20.00;;
14048;SDS011;7099;53.922;10.728;2023-02-15T13:33:42;33.57;;;19.47;;
14048;SDS011;7099;53.922;10.728;2023-02-15T13:38:16;34.77;;;19.73;;
14048;SDS011;7099;53.922;10.728;2023-02-15T13:43:11;36.50;;;21.10;;
14048;SDS011;7099;53.922;10.728;2023-02-15T13:52:23;43.43;;;22.90;;
14048;SDS011;7099;53.922;10.728;2023-02-15T13:56:40;41.60;;;23.23;;
14048;SDS011;7099;53.922;10.728;2023-02-15T14:10:45;43.80;;;23.20;;
14048;SDS011;7099;53.922;10.728;2023-02-15T14:15:09;53.67;;;24.77;;
14048;SDS011;7099;53.922;10.728;2023-02-15T14:19:41;54.67;;;27.53;;
14048;SDS011;7099;53.922;10.728;2023-02-15T14:32:59;53.53;;;27.80;;
14048;SDS011;7099;53.922;10.728;2023-02-15T14:37:26;53.03;;;26.80;;
14048;SDS011;7099;53.922;10.728;2023-02-15T14:41:53;61.27;;;26.67;;
14048;SDS011;7099;53.922;10.728;2023-02-15T14:50:44;63.70;;;29.37;;
14048;SDS011;7099;53.922;10.728;2023-02-15T14:54:52;56.70;;;27.63;;
14048;SDS011;7099;53.922;10.728;2023-02-15T14:59:00;51.07;;;27.77;;
14048;SDS011;7099;53.922;10.728;2023-02-15T15:03:23;62.30;;;28.17;;
14048;SDS011;7099;53.922;10.728;2023-02-15T15:07:37;61.73;;;30.57;;
14048;SDS011;7099;53.922;10.728;2023-02-15T15:11:48;65.30;;;29.97;;
14048;SDS011;7099;53.922;10.728;2023-02-15T15:15:56;57.00;;;27.83;;
14048;SDS011;7099;53.922;10.728;2023-02-15T15:29:03;61.57;;;29.77;;
14048;SDS011;7099;53.922;10.728;2023-02-15T15:33:16;64.87;;;29.33;;
14048;SDS011;7099;53.922;10.728;2023-02-15T15:38:12;67.27;;;30.00;;
14048;SDS011;7099;53.922;10.728;2023-02-15T15:52:19;57.87;;;28.27;;
14048;SDS011;7099;53.922;10.728;2023-02-15T15:56:26;57.50;;;27.70;;
14048;SDS011;7099;53.922;10.728;2023-02-15T16:00:54;62.97;;;28.83;;
14048;SDS011;7099;53.922;10.728;2023-02-15T16:05:16;58.73;;;27.20;;
14048;SDS011;7099;53.922;10.728;2023-02-15T16:09:23;74.87;;;31.40;;
14048;SDS011;7099;53.922;10.728;2023-02-15T16:13:31;58.97;;;29.80;;
14048;SDS011;7099;53.922;10.728;2023-02-15T16:17:38;57.70;;;28.30;;
14048;SDS011;7099;53.922;10.728;2023-02-15T16:21:47;60.93;;;27.30;;
14048;SDS011;7099;53.922;10.728;2023-02-15T16:30:18;59.30;;;28.00;;
14048;SDS011;7099;53.922;10.728;2023-02-15T16:34:34;58.57;;;27.50;;
14048;SDS011;7099;53.922;10.728;2023-02-15T16:42:53;71.33;;;29.87;;
14048;SDS011;7099;53.922;10.728;2023-02-15T16:47:10;73.30;;;29.50;;
14048;SDS011;7099;53.922;10.728;2023-02-15T16:51:26;55.37;;;25.97;;
14048;SDS011;7099;53.922;10.728;2023-02-15T16:55:39;130.53;;;27.00;;
14048;SDS011;7099;53.922;10.728;2023-02-15T16:59:50;48.90;;;24.93;;
14048;SDS011;7099;53.922;10.728;2023-02-15T17:04:12;50.10;;;24.67;;
14048;SDS011;7099;53.922;10.728;2023-02-15T17:08:43;66.33;;;25.73;;
14048;SDS011;7099;53.922;10.728;2023-02-15T17:12:52;48.13;;;25.43;;
14048;SDS011;7099;53.922;10.728;2023-02-15T17:21:18;43.73;;;24.13;;
14048;SDS011;7099;53.922;10.728;2023-02-15T17:25:28;88.73;;;24.60;;
14048;SDS011;7099;53.922;10.728;2023-02-15T17:29:45;48.70;;;24.17;;
14048;SDS011;7099;53.922;10.728;2023-02-15T17:33:57;74.93;;;28.90;;
14048;SDS011;7099;53.922;10.728;2023-02-15T17:38:06;64.80;;;26.57;;
14048;SDS011;7099;53.922;10.728;2023-02-15T17:42:25;62.23;;;26.97;;
14048;SDS011;7099;53.922;10.728;2023-02-15T17:46:34;67.43;;;26.70;;
14048;SDS011;7099;53.922;10.728;2023-02-15T17:50:41;61.53;;;26.60;;
14048;SDS011;7099;53.922;10.728;2023-02-15T17:54:47;57.10;;;24.47;;
14048;SDS011;7099;53.922;10.728;2023-02-15T17:59:11;70.27;;;23.50;;
14048;SDS011;7099;53.922;10.728;2023-02-15T18:03:17;79.37;;;24.20;;
14048;SDS011;7099;53.922;10.728;2023-02-15T18:07:42;51.83;;;22.50;;
14048;SDS011;7099;53.922;10.728;2023-02-15T18:12:27;56.83;;;20.90;;
14048;SDS011;7099;53.922;10.728;2023-02-15T18:16:43;76.27;;;20.60;;
14048;SDS011;7099;53.922;10.728;2023-02-15T18:20:50;58.57;;;20.23;;
14048;SDS011;7099;53.922;10.728;2023-02-15T18:24:55;97.40;;;20.27;;
14048;SDS011;7099;53.922;10.728;2023-02-15T18:29:01;84.27;;;22.03;;
14048;SDS011;7099;53.922;10.728;2023-02-15T18:33:41;50.77;;;21.77;;
14048;SDS011;7099;53.922;10.728;2023-02-15T18:37:51;47.33;;;20.83;;
14048;SDS011;7099;53.922;10.728;2023-02-15T18:41:58;82.63;;;21.70;;
14048;SDS011;7099;53.922;10.728;2023-02-15T18:46:03;149.43;;;22.13;;
14048;SDS011;7099;53.922;10.728;2023-02-15T18:50:10;41.50;;;20.93;;
14048;SDS011;7099;53.922;10.728;2023-02-15T18:54:18;64.23;;;18.50;;
14048;SDS011;7099;53.922;10.728;2023-02-15T18:58:27;33.43;;;18.83;;
14048;SDS011;7099;53.922;10.728;2023-02-15T19:02:33;48.93;;;19.00;;
14048;SDS011;7099;53.922;10.728;2023-02-15T19:06:39;40.27;;;18.90;;
14048;SDS011;7099;53.922;10.728;2023-02-15T19:10:51;52.73;;;19.37;;
14048;SDS011;7099;53.922;10.728;2023-02-15T19:14:56;36.13;;;18.77;;
14048;SDS011;7099;53.922;10.728;2023-02-15T19:19:02;49.87;;;18.57;;
14048;SDS011;7099;53.922;10.728;2023-02-15T19:23:20;49.13;;;18.50;;
14048;SDS011;7099;53.922;10.728;2023-02-15T19:31:38;30.73;;;17.70;;
14048;SDS011;7099;53.922;10.728;2023-02-15T19:35:45;61.53;;;20.57;;
14048;SDS011;7099;53.922;10.728;2023-02-15T19:39:56;32.57;;;18.50;;
14048;SDS011;7099;53.922;10.728;2023-02-15T19:44:01;50.17;;;18.27;;
14048;SDS011;7099;53.922;10.728;2023-02-15T19:48:08;36.43;;;19.67;;
14048;SDS011;7099;53.922;10.728;2023-02-15T19:52:19;48.37;;;18.67;;
14048;SDS011;7099;53.922;10.728;2023-02-15T19:56:29;30.93;;;16.77;;
14048;SDS011;7099;53.922;10.728;2023-02-15T20:00:35;32.73;;;15.83;;
14048;SDS011;7099;53.922;10.728;2023-02-15T20:04:40;39.63;;;17.30;;
14048;SDS011;7099;53.922;10.728;2023-02-15T20:08:46;56.40;;;15.27;;
14048;SDS011;7099;53.922;10.728;2023-02-15T20:12:52;32.60;;;17.37;;
14048;SDS011;7099;53.922;10.728;2023-02-15T20:16:58;30.83;;;15.90;;
14048;SDS011;7099;53.922;10.728;2023-02-15T20:21:04;53.90;;;16.60;;
14048;SDS011;7099;53.922;10.728;2023-02-15T20:25:16;42.00;;;18.20;;
14048;SDS011;7099;53.922;10.728;2023-02-15T20:29:28;29.93;;;18.10;;
14048;SDS011;7099;53.922;10.728;2023-02-15T20:33:33;39.07;;;16.70;;
14048;SDS011;7099;53.922;10.728;2023-02-15T20:37:39;40.87;;;17.03;;
14048;SDS011;7099;53.922;10.728;2023-02-15T20:41:44;50.47;;;17.10;;
14048;SDS011;7099;53.922;10.728;2023-02-15T20:45:53;45.50;;;17.50;;
14048;SDS011;7099;53.922;10.728;2023-02-15T20:49:58;43.40;;;16.00;;
14048;SDS011;7099;53.922;10.728;2023-02-15T20:54:09;30.87;;;15.93;;
14048;SDS011;7099;53.922;10.728;2023-02-15T20:58:22;55.40;;;15.80;;
14048;SDS011;7099;53.922;10.728;2023-02-15T21:02:31;31.47;;;16.40;;
14048;SDS011;7099;53.922;10.728;2023-02-15T21:06:36;40.33;;;16.63;;
14048;SDS011;7099;53.922;10.728;2023-02-15T21:10:42;48.77;;;17.33;;
14048;SDS011;7099;53.922;10.728;2023-02-15T21:14:50;38.73;;;16.77;;
14048;SDS011;7099;53.922;10.728;2023-02-15T21:18:55;65.83;;;16.60;;
14048;SDS011;7099;53.922;10.728;2023-02-15T21:23:02;35.33;;;16.20;;
14048;SDS011;7099;53.922;10.728;2023-02-15T21:27:09;32.67;;;16.50;;
14048;SDS011;7099;53.922;10.728;2023-02-15T21:31:20;39.97;;;16.97;;
14048;SDS011;7099;53.922;10.728;2023-02-15T21:35:29;29.13;;;17.20;;
14048;SDS011;7099;53.922;10.728;2023-02-15T21:39:34;30.97;;;16.43;;
14048;SDS011;7099;53.922;10.728;2023-02-15T21:43:40;39.73;;;18.17;;
14048;SDS011;7099;53.922;10.728;2023-02-15T21:48:04;40.33;;;16.90;;
14048;SDS011;7099;53.922;10.728;2023-02-15T21:52:11;34.00;;;17.27;;
14048;SDS011;7099;53.922;10.728;2023-02-15T21:56:18;32.53;;;16.80;;
14048;SDS011;7099;53.922;10.728;2023-02-15T22:00:26;36.70;;;17.20;;
14048;SDS011;7099;53.922;10.728;2023-02-15T22:04:32;38.07;;;16.43;;
14048;SDS011;7099;53.922;10.728;2023-02-15T22:08:38;32.73;;;17.63;;
14048;SDS011;7099;53.922;10.728;2023-02-15T22:12:43;38.07;;;17.33;;
14048;SDS011;7099;53.922;10.728;2023-02-15T22:16:49;35.63;;;16.40;;
14048;SDS011;7099;53.922;10.728;2023-02-15T22:20:55;29.53;;;16.47;;
14048;SDS011;7099;53.922;10.728;2023-02-15T22:25:01;32.20;;;16.53;;
14048;SDS011;7099;53.922;10.728;2023-02-15T22:29:08;34.43;;;15.83;;
14048;SDS011;7099;53.922;10.728;2023-02-15T22:33:22;31.90;;;16.37;;
14048;SDS011;7099;53.922;10.728;2023-02-15T22:37:33;40.47;;;14.37;;
14048;SDS011;7099;53.922;10.728;2023-02-15T22:41:38;26.50;;;15.70;;
14048;SDS011;7099;53.922;10.728;2023-02-15T22:45:44;30.23;;;14.87;;
14048;SDS011;7099;53.922;10.728;2023-02-15T22:49:49;29.73;;;16.30;;
14048;SDS011;7099;53.922;10.728;2023-02-15T22:53:55;34.53;;;15.77;;
14048;SDS011;7099;53.922;10.728;2023-02-15T22:58:01;33.67;;;14.87;;
14048;SDS011;7099;53.922;10.728;2023-02-15T23:02:09;32.07;;;15.50;;
14048;SDS011;7099;53.922;10.728;2023-02-15T23:06:17;30.90;;;14.33;;
14048;SDS011;7099;53.922;10.728;2023-02-15T23:10:24;42.60;;;14.90;;
14048;SDS011;7099;53.922;10.728;2023-02-15T23:14:32;22.97;;;15.17;;
14048;SDS011;7099;53.922;10.728;2023-02-15T23:18:40;34.93;;;16.13;;
14048;SDS011;7099;53.922;10.728;2023-02-15T23:22:50;23.33;;;13.87;;
14048;SDS011;7099;53.922;10.728;2023-02-15T23:26:57;25.53;;;14.00;;
14048;SDS011;7099;53.922;10.728;2023-02-15T23:31:27;34.90;;;13.50;;
14048;SDS011;7099;53.922;10.728;2023-02-15T23:35:35;24.83;;;14.60;;
14048;SDS011;7099;53.922;10.728;2023-02-15T23:39:42;28.10;;;14.70;;
14048;SDS011;7099;53.922;10.728;2023-02-15T23:44:07;20.30;;;12.63;;
14048;SDS011;7099;53.922;10.728;2023-02-15T23:48:21;23.70;;;13.37;;
14048;SDS011;7099;53.922;10.728;2023-02-15T23:52:36;26.30;;;13.80;;
14048;SDS011;7099;53.922;10.728;2023-02-15T23:56:41;19.30;;;12.77;;
